Riverton, WY

4:03 AM MDT on August 31, 2014 (GMT -0600)
KWYRIVER2 | Change Station
CLOSE
Current Station
Personal Weather Station
Location: Riverton, WY
Elevation: 5405 ft
Nearby Weather Stations

Elev 5405 ft 43.08 °N, 108.52 °W | Updated 1 minute ago

Mostly Cloudy
Mostly Cloudy
53.8 °F
Feels Like 53.8 °F
N
6.0
Wind Variable Wind from ESE

Today
High -- | Low -- °F
--% Chance of Precip.
Yesterday
High -- | Low -- °F
Precip. -- in
6:37 AM 7:50 PM
Waxing Crescent, 29% visible
Pressure 29.73 in
Visibility 10.0 miles
Clouds Mostly Cloudy 10000 ft
Mostly Cloudy 12000 ft
Dew Point 48 °F
Humidity 81%
Rainfall 0.03 in
Snow Depth Not available.
UV 0.0 out of 12
Pollen 9.30 out of 12
Air Quality Not available.
Flu Activity Not available.
METAR KRIW 310953Z AUTO 18008KT 10SM BKN100 BKN120 12/09 A2990 RMK AO2 RAE33 SLP068 P0000 T01170089

More Conditions Fewer Conditions

Pressure 29.73 in
Visibility 10.0 miles
Clouds Mostly Cloudy 10000 ft
Mostly Cloudy 12000 ft
Dew Point 48 °F
Humidity 81%
Rainfall 0.03 in
Snow Depth Not available.
UV 0.0 out of 12
Pollen 9.30 out of 12
Air Quality Not available.
Flu Activity Not available.
METAR KRIW 310953Z AUTO 18008KT 10SM BKN100 BKN120 12/09 A2990 RMK AO2 RAE33 SLP068 P0000 T01170089

More Conditions Fewer Conditions

10-Day Weather Forecast

Almanac

Astronomy

Aug. 31, 2014 Rise Set
Actual Time 6:37 AM MDT 7:50 PM MDT
Civil Twilight 6:07 AM MDT 8:19 PM MDT
Nautical Twilight 5:32 AM MDT 8:54 PM MDT
Astronomical Twilight 4:55 AM MDT 9:31 PM MDT
Moon 12:36 PM MDT 10:57 PM MDT
Length of Visible Light 14h 11m
Length of Day
13h 13m
Tomorrow will be 2m 49s shorter.
Waxing Crescent, 29% of the Moon is Illuminated
Today
Waxing Crescent
Sep 2
First Quarter
Sep 8
Full
Sep 15
Last Quarter
Sep 24
New

Today's Extremes

State Highs State Lows

Community

WunderPhotos

Upload Photos

1,748,834 photos uploaded!

Nearby

Snow Depth

Station Depth Elevation
Townsend Creek 0 in 8700 ft
St. Lawrence Alt 1 in 8620 ft
South Pass 0 in 9040 ft
Big Sandy Opening 0 in 9080 ft
Owl Creek 0 in 8975 ft

Earthquake Activity

City Distance Mag. Time & Date
No recent earthquake activity has been reported nearby.
Minimum magnitude displayed is 2.5.

Coastal Water Temperatures

Place Temperature
No Stations Reporting

Nearby Weather Stations